Terminal Aerodrome Forecast
Issued by NWS

Home | Current Version | Previous Version | Text Only | Print | Product List | Glossary On
Versions: 1 2 3 4 5 6 7 8 9 10 11 12 13 14
000
FTUS41 KCAR 192320
TAFHUL
TAF
KHUL 192320Z 2000/2024 20010G18KT P6SM BKN200
     FM200200 20007KT P6SM BKN070
     FM201400 30011KT P6SM FEW250
     FM201500 30015G23KT P6SM FEW070 SCT250=

USA.gov is the U.S. government's official web portal to all federal, state and local government web resources and services.